createdAt,value
2018-09-23T00:00:39.618Z,94.10
2018-09-23T00:03:12.350Z,94.20
2018-09-23T00:05:45.086Z,93.70
2018-09-23T00:08:17.848Z,94.00
2018-09-23T00:10:50.570Z,94.40
2018-09-23T00:13:23.265Z,94.50
2018-09-23T00:15:56.044Z,94.60
2018-09-23T00:18:28.713Z,95.10
2018-09-23T00:21:01.390Z,95.50
2018-09-23T00:23:35.131Z,95.80
2018-09-23T00:26:07.837Z,95.90
2018-09-23T00:28:40.552Z,95.10
2018-09-23T00:31:13.351Z,95.00
2018-09-23T00:33:46.022Z,94.90
2018-09-23T00:36:18.859Z,94.70
2018-09-23T00:38:51.576Z,95.10
2018-09-23T00:41:24.280Z,94.80
2018-09-23T00:43:57.008Z,94.40
2018-09-23T00:46:29.904Z,94.30
2018-09-23T00:49:03.126Z,94.50
2018-09-23T00:51:36.020Z,93.80
2018-09-23T00:54:08.867Z,93.50
2018-09-23T00:56:41.724Z,93.80
2018-09-23T00:59:16.789Z,94.20
2018-09-23T01:01:49.509Z,93.60
2018-09-23T01:04:22.934Z,93.30
2018-09-23T01:06:55.766Z,93.40
2018-09-23T01:09:28.603Z,93.30
2018-09-23T01:12:01.399Z,92.90
2018-09-23T01:14:35.456Z,93.20
2018-09-23T01:17:08.204Z,93.60
2018-09-23T01:19:40.897Z,94.00
2018-09-23T01:22:13.562Z,93.40
2018-09-23T01:24:47.225Z,93.40
2018-09-23T01:27:20.301Z,92.70
2018-09-23T01:29:52.992Z,92.70
2018-09-23T01:32:26.589Z,93.50
2018-09-23T01:35:05.964Z,94.00
2018-09-23T01:37:38.624Z,94.40
2018-09-23T01:40:14.041Z,94.50
2018-09-23T01:42:48.883Z,94.90
2018-09-23T01:45:22.176Z,94.70
2018-09-23T01:47:54.795Z,94.60
2018-09-23T01:50:27.469Z,94.80
2018-09-23T01:53:00.349Z,95.00
2018-09-23T01:55:32.969Z,95.20
2018-09-23T01:58:05.696Z,95.20
2018-09-23T02:00:38.312Z,94.80
2018-09-23T02:03:12.909Z,95.00
2018-09-23T02:05:47.876Z,94.50
2018-09-23T02:08:21.119Z,94.50
2018-09-23T02:10:54.724Z,94.50
2018-09-23T02:13:27.629Z,94.90
2018-09-23T02:16:00.378Z,95.50
2018-09-23T02:18:33.016Z,95.40
2018-09-23T02:21:05.754Z,95.60
2018-09-23T02:23:38.391Z,95.30
2018-09-23T02:26:10.988Z,94.70
2018-09-23T02:28:43.637Z,94.70
2018-09-23T02:31:16.306Z,94.90
2018-09-23T02:33:48.934Z,95.20
2018-09-23T02:36:21.627Z,94.60
2018-09-23T02:38:54.356Z,94.60
2018-09-23T02:41:27.036Z,94.60
2018-09-23T02:43:59.635Z,94.70
2018-09-23T02:46:32.349Z,94.70
2018-09-23T02:49:05.102Z,94.60
2018-09-23T02:51:37.696Z,94.40
2018-09-23T02:54:10.299Z,94.60
2018-09-23T02:56:42.924Z,94.70
2018-09-23T02:59:17.638Z,94.40
2018-09-23T03:01:50.289Z,94.80
2018-09-23T03:04:22.950Z,95.20
2018-09-23T03:06:55.573Z,94.90
2018-09-23T03:09:28.179Z,94.90
2018-09-23T03:12:00.785Z,95.30
2018-09-23T03:14:33.365Z,95.70
2018-09-23T03:17:06.133Z,95.90
2018-09-23T03:19:38.823Z,95.60
2018-09-23T03:22:11.417Z,95.50
2018-09-23T03:24:44.034Z,95.80
2018-09-23T03:27:16.665Z,96.10
2018-09-23T03:29:49.246Z,96.30
2018-09-23T03:32:22.078Z,96.30
2018-09-23T03:34:54.766Z,96.50
2018-09-23T03:37:27.397Z,96.40
2018-09-23T03:40:00.032Z,96.30
2018-09-23T03:42:32.699Z,95.80
2018-09-23T03:45:05.447Z,95.60
2018-09-23T03:47:38.228Z,95.60
2018-09-23T03:50:11.385Z,95.80
2018-09-23T03:52:44.205Z,95.60
2018-09-23T03:55:17.137Z,95.80
2018-09-23T03:57:50.259Z,95.90
2018-09-23T04:00:23.218Z,96.40
2018-09-23T04:02:56.107Z,96.50
2018-09-23T04:05:29.035Z,95.90
2018-09-23T04:08:02.121Z,95.80
2018-09-23T04:10:35.019Z,96.00
2018-09-23T04:13:08.749Z,95.80
2018-09-23T04:15:41.620Z,95.70
2018-09-23T04:18:14.580Z,95.80
2018-09-23T04:20:47.525Z,95.90
2018-09-23T04:23:21.969Z,96.10
2018-09-23T04:25:55.343Z,96.60
2018-09-23T04:28:28.921Z,96.70
2018-09-23T04:31:02.421Z,96.70
2018-09-23T04:33:35.620Z,96.40
2018-09-23T04:36:08.717Z,96.50
2018-09-23T04:38:41.557Z,96.80
2018-09-23T04:41:14.329Z,96.90
2018-09-23T04:43:47.118Z,96.90
2018-09-23T04:46:19.908Z,96.80
2018-09-23T04:48:53.000Z,96.30
2018-09-23T04:51:25.818Z,96.60
2018-09-23T04:53:58.470Z,96.70
2018-09-23T04:56:31.241Z,96.80
2018-09-23T04:59:04.451Z,97.00
2018-09-23T05:01:37.278Z,96.60
2018-09-23T05:04:09.912Z,96.30
2018-09-23T05:06:42.863Z,96.30
2018-09-23T05:09:15.680Z,96.30
2018-09-23T05:11:48.492Z,96.30
2018-09-23T05:14:21.259Z,96.00
2018-09-23T05:16:54.080Z,95.80
2018-09-23T05:19:26.816Z,95.80
2018-09-23T05:21:59.557Z,96.00
2018-09-23T05:24:33.072Z,95.80
2018-09-23T05:27:05.754Z,96.10
2018-09-23T05:29:38.591Z,96.30
2018-09-23T05:32:11.282Z,96.20
2018-09-23T05:34:44.208Z,95.80
2018-09-23T05:37:17.013Z,95.90
2018-09-23T05:39:49.745Z,96.30
2018-09-23T05:42:22.504Z,96.40
2018-09-23T05:44:55.155Z,96.10
2018-09-23T05:47:27.803Z,96.30
2018-09-23T05:50:00.475Z,96.70
2018-09-23T05:52:33.289Z,96.70
2018-09-23T05:55:06.110Z,96.70
2018-09-23T05:57:39.002Z,96.60
2018-09-23T06:00:15.109Z,96.70
2018-09-23T06:02:48.051Z,96.60
2018-09-23T06:05:21.732Z,96.70
2018-09-23T06:07:54.474Z,96.80
2018-09-23T06:10:27.396Z,96.70
2018-09-23T06:13:00.270Z,96.70
2018-09-23T06:15:33.276Z,96.50
2018-09-23T06:18:06.100Z,96.50
2018-09-23T06:20:38.875Z,96.50
2018-09-23T06:23:11.667Z,96.70
2018-09-23T06:25:44.430Z,96.40
2018-09-23T06:28:17.254Z,96.20
2018-09-23T06:30:50.280Z,96.30
2018-09-23T06:33:23.239Z,96.30
2018-09-23T06:35:56.141Z,96.00
2018-09-23T06:38:29.039Z,96.20
2018-09-23T06:41:01.900Z,95.90
2018-09-23T06:43:38.502Z,96.10
2018-09-23T06:46:11.648Z,95.90
2018-09-23T06:48:44.648Z,96.00
2018-09-23T06:51:17.548Z,96.10
2018-09-23T06:53:50.624Z,96.00
2018-09-23T06:56:23.664Z,95.50
2018-09-23T06:58:56.532Z,95.90
2018-09-23T07:01:29.546Z,95.10
2018-09-23T07:04:02.979Z,95.20
2018-09-23T07:06:36.047Z,95.50
2018-09-23T07:09:09.004Z,95.60
2018-09-23T07:11:42.628Z,95.80
2018-09-23T07:14:15.598Z,96.00
2018-09-23T07:16:48.524Z,96.00
2018-09-23T07:19:22.569Z,95.80
2018-09-23T07:21:55.625Z,95.70
2018-09-23T07:24:28.582Z,95.40
2018-09-23T07:27:01.576Z,95.50
2018-09-23T07:29:34.379Z,95.50
2018-09-23T07:32:07.373Z,95.20
2018-09-23T07:34:40.224Z,94.60
2018-09-23T07:37:13.487Z,95.00
2018-09-23T07:39:46.553Z,95.00
2018-09-23T07:42:19.601Z,94.80
2018-09-23T07:44:52.387Z,95.10
2018-09-23T07:47:26.111Z,94.90
2018-09-23T07:50:02.142Z,95.10
2018-09-23T07:52:35.005Z,95.20
2018-09-23T07:55:07.936Z,95.00
2018-09-23T07:57:41.502Z,94.80
2018-09-23T08:00:15.135Z,94.90
2018-09-23T08:02:48.123Z,94.80
2018-09-23T08:05:21.063Z,94.90
2018-09-23T08:07:53.941Z,95.00
2018-09-23T08:10:26.847Z,94.80
2018-09-23T08:13:00.172Z,94.60
2018-09-23T08:15:34.629Z,94.50
2018-09-23T08:18:07.658Z,94.80
2018-09-23T08:20:40.592Z,95.00
2018-09-23T08:23:13.450Z,94.50
2018-09-23T08:25:47.124Z,94.20
2018-09-23T08:28:20.389Z,94.30
2018-09-23T08:30:53.185Z,94.30
2018-09-23T08:33:26.598Z,94.00
2018-09-23T08:36:00.144Z,93.50
2018-09-23T08:38:33.696Z,93.10
2018-09-23T08:41:06.538Z,93.20
2018-09-23T08:43:39.331Z,93.50
2018-09-23T08:46:12.616Z,93.30
2018-09-23T08:48:45.509Z,93.20
2018-09-23T08:51:19.049Z,92.90
2018-09-23T08:53:52.250Z,93.10
2018-09-23T08:56:25.542Z,93.60
2018-09-23T08:58:58.977Z,93.90
2018-09-23T09:01:32.059Z,93.90
2018-09-23T09:04:05.169Z,93.50
2018-09-23T09:06:38.012Z,92.80
2018-09-23T09:09:10.772Z,92.60
2018-09-23T09:11:43.625Z,92.00
2018-09-23T09:14:16.433Z,92.20
2018-09-23T09:16:49.275Z,92.40
2018-09-23T09:19:23.114Z,92.40
2018-09-23T09:21:55.912Z,92.50
2018-09-23T09:24:28.495Z,92.80
2018-09-23T09:27:01.148Z,93.30
2018-09-23T09:29:33.751Z,93.50
2018-09-23T09:32:06.476Z,93.90
2018-09-23T09:34:39.310Z,93.90
2018-09-23T09:37:11.971Z,93.00
2018-09-23T09:39:44.700Z,92.50
2018-09-23T09:42:17.370Z,92.00
2018-09-23T09:44:50.019Z,92.20
2018-09-23T09:47:22.665Z,92.80
2018-09-23T09:49:55.285Z,92.70
2018-09-23T09:52:27.910Z,92.30
2018-09-23T09:55:00.562Z,92.50
2018-09-23T09:57:33.242Z,92.60
2018-09-23T10:00:06.654Z,92.50
2018-09-23T10:02:39.299Z,92.70
2018-09-23T10:05:12.034Z,92.70
2018-09-23T10:07:44.713Z,92.00
2018-09-23T10:10:17.422Z,92.10
2018-09-23T10:12:50.097Z,92.00
2018-09-23T10:15:22.803Z,92.40
2018-09-23T10:17:55.535Z,91.80
2018-09-23T10:20:28.432Z,92.10
2018-09-23T10:23:01.170Z,91.90
2018-09-23T10:25:34.852Z,92.20
2018-09-23T10:28:07.531Z,92.30
2018-09-23T10:30:40.173Z,92.60
2018-09-23T10:33:12.874Z,93.00
2018-09-23T10:35:45.644Z,92.50
2018-09-23T10:38:18.429Z,92.10
2018-09-23T10:40:51.159Z,92.10
2018-09-23T10:43:23.808Z,91.90
2018-09-23T10:45:56.481Z,91.90
2018-09-23T10:48:29.381Z,92.20
2018-09-23T10:51:02.704Z,92.00
2018-09-23T10:53:35.370Z,92.60
2018-09-23T10:56:08.258Z,92.60
2018-09-23T10:58:40.880Z,92.50
2018-09-23T11:01:13.532Z,92.70
2018-09-23T11:03:46.314Z,92.10
2018-09-23T11:06:19.022Z,91.30
2018-09-23T11:08:51.639Z,90.40
2018-09-23T11:11:24.305Z,91.40
2018-09-23T11:13:56.976Z,91.70
2018-09-23T11:16:29.583Z,91.30
2018-09-23T11:19:02.284Z,91.70
2018-09-23T11:21:34.968Z,91.90
2018-09-23T11:24:07.620Z,91.30
2018-09-23T11:26:40.277Z,91.10
2018-09-23T11:29:12.939Z,90.90
2018-09-23T11:31:45.708Z,91.10
2018-09-23T11:34:18.361Z,91.10
2018-09-23T11:36:51.039Z,91.20
2018-09-23T11:39:24.610Z,90.80
2018-09-23T11:41:57.340Z,90.40
2018-09-23T11:44:30.013Z,90.20
2018-09-23T11:47:02.662Z,89.40
2018-09-23T11:49:35.277Z,87.00
2018-09-23T11:52:07.910Z,87.70
2018-09-23T11:54:40.616Z,86.90
2018-09-23T11:57:13.242Z,85.70
2018-09-23T11:59:45.957Z,86.00
2018-09-23T12:02:18.705Z,85.50
2018-09-23T12:04:51.308Z,83.90
2018-09-23T12:07:23.964Z,82.30
2018-09-23T12:09:56.597Z,83.60
2018-09-23T12:12:29.263Z,83.70
2018-09-23T12:15:02.756Z,83.70
2018-09-23T12:17:35.390Z,83.20
2018-09-23T12:20:07.973Z,83.40
2018-09-23T12:22:40.600Z,82.30
2018-09-23T12:25:13.287Z,82.10
2018-09-23T12:27:46.330Z,80.40
2018-09-23T12:30:19.314Z,78.10
2018-09-23T12:32:52.375Z,79.30
2018-09-23T12:35:25.173Z,79.80
2018-09-23T12:37:57.937Z,80.80
2018-09-23T12:40:30.849Z,83.00
2018-09-23T12:43:04.101Z,84.30
2018-09-23T12:45:36.818Z,82.90
2018-09-23T12:48:09.575Z,78.20
2018-09-23T12:50:42.366Z,76.80
2018-09-23T12:53:15.898Z,79.40
2018-09-23T12:55:48.850Z,79.20
2018-09-23T12:58:21.492Z,78.10
2018-09-23T13:00:56.570Z,77.70
2018-09-23T13:03:29.360Z,75.60
2018-09-23T13:06:02.143Z,76.70
2018-09-23T13:08:34.908Z,78.30
2018-09-23T13:11:07.560Z,77.30
2018-09-23T13:13:40.236Z,74.80
2018-09-23T13:16:13.056Z,74.20
2018-09-23T13:18:45.817Z,72.80
2018-09-23T13:21:18.492Z,73.10
2018-09-23T13:24:41.245Z,72.70
2018-09-23T13:27:13.982Z,71.40
2018-09-23T13:29:46.642Z,70.60
2018-09-23T13:32:20.406Z,68.90
2018-09-23T13:34:53.257Z,68.80
2018-09-23T13:37:26.120Z,68.50
2018-09-23T13:39:58.841Z,70.90
2018-09-23T13:42:31.768Z,71.60
2018-09-23T13:45:04.565Z,70.80
2018-09-23T13:47:37.624Z,73.00
2018-09-23T13:50:10.452Z,71.30
2018-09-23T13:52:43.798Z,67.70
2018-09-23T13:55:16.510Z,68.90
2018-09-23T13:57:50.027Z,69.40
2018-09-23T14:00:22.913Z,72.60
2018-09-23T14:02:55.639Z,72.70
2018-09-23T14:05:28.472Z,71.90
2018-09-23T14:08:01.245Z,69.60
2018-09-23T14:10:34.052Z,67.70
2018-09-23T14:13:06.808Z,66.00
2018-09-23T14:15:39.478Z,64.10
2018-09-23T14:18:12.433Z,64.90
2018-09-23T14:20:45.218Z,63.40
2018-09-23T14:23:18.036Z,62.30
2018-09-23T14:25:50.717Z,64.30
2018-09-23T14:28:23.358Z,62.10
2018-09-23T14:30:56.115Z,62.90
2018-09-23T14:33:30.342Z,63.10
2018-09-23T14:36:03.416Z,62.20
2018-09-23T14:38:36.202Z,63.40
2018-09-23T14:41:09.045Z,62.80
2018-09-23T14:43:41.886Z,61.80
2018-09-23T14:46:14.866Z,60.50
2018-09-23T14:48:47.737Z,61.30
2018-09-23T14:51:20.513Z,62.00
2018-09-23T14:53:53.285Z,61.80
2018-09-23T14:56:26.060Z,64.30
2018-09-23T14:58:58.982Z,69.50
2018-09-23T15:01:31.635Z,71.90
2018-09-23T15:04:04.842Z,70.60
2018-09-23T15:06:37.508Z,67.50
2018-09-23T15:09:10.647Z,65.60
2018-09-23T15:11:43.356Z,66.00
2018-09-23T15:14:16.673Z,66.50
2018-09-23T15:16:49.270Z,66.80
2018-09-23T15:19:22.460Z,66.20
2018-09-23T15:21:55.122Z,65.60
2018-09-23T15:24:27.752Z,65.50
2018-09-23T15:27:00.432Z,66.70
2018-09-23T15:29:33.111Z,67.60
2018-09-23T15:32:05.796Z,70.00
2018-09-23T15:34:38.392Z,72.20
2018-09-23T15:37:11.033Z,74.00
2018-09-23T15:39:43.741Z,76.20
2018-09-23T15:42:16.552Z,77.20
2018-09-23T15:44:49.154Z,77.20
2018-09-23T15:47:22.913Z,78.60
2018-09-23T15:49:55.501Z,78.60
2018-09-23T15:52:28.207Z,78.90
2018-09-23T15:55:00.866Z,79.80
2018-09-23T15:57:33.457Z,79.80
2018-09-23T16:00:06.200Z,80.70
2018-09-23T16:02:38.820Z,81.60
2018-09-23T16:05:11.450Z,81.20
2018-09-23T16:07:44.068Z,81.10
2018-09-23T16:10:16.746Z,81.10
2018-09-23T16:12:49.488Z,81.90
2018-09-23T16:15:22.157Z,82.10
2018-09-23T16:17:54.777Z,81.90
2018-09-23T16:20:27.480Z,81.00
2018-09-23T16:23:00.080Z,82.00
2018-09-23T16:25:32.724Z,82.30
2018-09-23T16:28:05.351Z,82.80
2018-09-23T16:30:38.931Z,83.60
2018-09-23T16:33:11.550Z,84.40
2018-09-23T16:35:44.150Z,85.00
2018-09-23T16:38:16.942Z,85.80
2018-09-23T16:40:49.590Z,86.00
2018-09-23T16:43:22.343Z,86.40
2018-09-23T16:45:54.964Z,86.60
2018-09-23T16:48:27.657Z,86.70
2018-09-23T16:51:00.418Z,86.80
2018-09-23T16:53:33.160Z,86.80
2018-09-23T16:56:06.391Z,86.60
2018-09-23T16:58:39.110Z,86.20
2018-09-23T17:01:11.756Z,86.80
2018-09-23T17:03:44.436Z,86.90
2018-09-23T17:06:17.118Z,87.10
2018-09-23T17:08:49.669Z,87.70
2018-09-23T17:11:22.318Z,88.00
2018-09-23T17:13:54.939Z,87.70
2018-09-23T17:16:27.767Z,88.00
2018-09-23T17:19:00.776Z,88.10
2018-09-23T17:21:33.421Z,88.10
2018-09-23T17:24:06.060Z,88.20
2018-09-23T17:26:38.675Z,88.60
2018-09-23T17:29:17.171Z,88.70
2018-09-23T17:31:50.153Z,88.90
2018-09-23T17:34:22.910Z,89.10
2018-09-23T17:36:55.852Z,89.20
2018-09-23T17:39:28.752Z,89.20
2018-09-23T17:42:01.623Z,89.60
2018-09-23T17:44:34.527Z,89.80
2018-09-23T17:47:07.583Z,90.00
2018-09-23T17:49:40.520Z,90.20
2018-09-23T17:52:13.484Z,90.10
2018-09-23T17:54:55.654Z,90.00
2018-09-23T17:57:36.682Z,90.00
2018-09-23T18:00:11.305Z,90.00
2018-09-23T18:02:55.384Z,90.10
2018-09-23T18:05:28.486Z,90.30
2018-09-23T18:08:01.232Z,90.30
2018-09-23T18:10:34.498Z,90.30
2018-09-23T18:13:08.876Z,90.50
2018-09-23T18:15:42.773Z,90.40
2018-09-23T18:18:17.794Z,90.40
2018-09-23T18:20:56.473Z,90.40
2018-09-23T18:23:32.757Z,90.60
2018-09-23T18:26:05.758Z,90.70
2018-09-23T18:28:38.734Z,90.90
2018-09-23T18:31:13.528Z,91.00
2018-09-23T18:33:47.495Z,91.40
2018-09-23T18:36:23.312Z,91.20
2018-09-23T18:38:58.045Z,91.30
2018-09-23T18:41:33.290Z,91.30
2018-09-23T18:44:07.903Z,91.50
2018-09-23T18:46:43.425Z,91.60
2018-09-23T18:49:17.380Z,91.60
2018-09-23T18:51:52.709Z,91.60
2018-09-23T18:54:33.172Z,91.70
2018-09-23T19:00:02.135Z,91.70
2018-09-23T19:02:39.808Z,91.80
2018-09-23T19:05:14.509Z,91.80
2018-09-23T19:07:48.931Z,91.80
2018-09-23T19:10:23.213Z,91.70
2018-09-23T19:13:08.992Z,91.70
2018-09-23T19:15:42.860Z,91.80
2018-09-23T19:18:16.147Z,91.70
2018-09-23T19:20:50.221Z,91.70
2018-09-23T19:23:25.266Z,91.90
2018-09-23T19:25:59.948Z,91.80
2018-09-23T19:28:33.725Z,91.90
2018-09-23T19:31:07.320Z,92.10
2018-09-23T19:33:41.991Z,91.90
2018-09-23T19:36:15.715Z,92.00
2018-09-23T19:38:50.625Z,92.20
2018-09-23T19:41:25.988Z,92.30
2018-09-23T19:44:00.744Z,92.20
2018-09-23T19:46:34.729Z,92.60
2018-09-23T19:49:13.504Z,93.60
2018-09-23T19:51:47.061Z,95.50
2018-09-23T19:54:24.984Z,97.30
2018-09-23T19:56:57.896Z,98.60
2018-09-23T19:59:30.796Z,99.10
2018-09-23T20:02:06.242Z,99.40
2018-09-23T20:04:40.153Z,99.90
2018-09-23T20:07:16.826Z,99.70
2018-09-23T20:09:51.586Z,99.90
2018-09-23T20:12:26.506Z,99.90
2018-09-23T20:15:01.445Z,99.90
2018-09-23T20:17:37.075Z,99.90
2018-09-23T20:20:14.129Z,99.60
2018-09-23T20:22:53.117Z,99.90
2018-09-23T20:25:30.264Z,99.90
2018-09-23T20:28:04.814Z,99.90
2018-09-23T20:30:38.392Z,99.90
2018-09-23T20:33:11.348Z,99.90
2018-09-23T20:35:44.160Z,99.90
2018-09-23T20:38:16.798Z,99.90
2018-09-23T20:40:49.493Z,99.90
2018-09-23T20:43:22.234Z,99.90
2018-09-23T20:45:55.011Z,99.90
2018-09-23T20:48:28.966Z,99.90
2018-09-23T20:51:01.945Z,98.80
2018-09-23T20:53:34.820Z,99.40
2018-09-23T20:56:07.707Z,99.90
2018-09-23T20:58:40.420Z,99.90
2018-09-23T21:01:13.635Z,99.90
2018-09-23T21:03:46.965Z,99.90
2018-09-23T21:06:19.598Z,99.90
2018-09-23T21:08:52.286Z,99.90
2018-09-23T21:11:24.944Z,99.90
2018-09-23T21:13:57.863Z,99.90
2018-09-23T21:16:30.593Z,99.90
2018-09-23T21:19:05.187Z,99.90
2018-09-23T21:21:37.868Z,99.90
2018-09-23T21:24:11.143Z,99.90
2018-09-23T21:26:43.971Z,99.90
2018-09-23T21:29:17.171Z,99.90
2018-09-23T21:31:49.889Z,99.90
2018-09-23T21:34:22.648Z,99.90
2018-09-23T21:36:55.419Z,99.90
2018-09-23T21:39:28.096Z,99.90
2018-09-23T21:42:00.703Z,99.90
2018-09-23T21:44:33.626Z,99.90
2018-09-23T21:47:06.277Z,99.90
2018-09-23T21:49:38.946Z,99.90
2018-09-23T21:52:11.581Z,99.90
2018-09-23T21:54:44.212Z,99.90
2018-09-23T21:57:16.855Z,99.90
2018-09-23T21:59:49.455Z,99.90
2018-09-23T22:02:22.390Z,99.90
2018-09-23T22:04:55.058Z,99.90
2018-09-23T22:07:27.688Z,99.90
2018-09-23T22:10:00.329Z,99.90
2018-09-23T22:12:33.250Z,99.90
2018-09-23T22:15:10.959Z,99.90
2018-09-23T22:17:43.582Z,99.90
2018-09-23T22:20:16.299Z,99.90
2018-09-23T22:22:48.909Z,99.90
2018-09-23T22:25:22.777Z,99.90
2018-09-23T22:27:56.192Z,99.90
2018-09-23T22:30:28.809Z,99.90
2018-09-23T22:33:01.550Z,99.90
2018-09-23T22:35:34.243Z,99.90
2018-09-23T22:38:06.869Z,99.90
2018-09-23T22:40:39.535Z,99.90
2018-09-23T22:43:12.148Z,99.90
2018-09-23T22:45:44.827Z,99.90
2018-09-23T22:48:18.098Z,99.90
2018-09-23T22:50:50.673Z,99.90
2018-09-23T22:53:23.281Z,99.90
2018-09-23T22:55:55.895Z,99.90
2018-09-23T22:58:28.512Z,99.90
2018-09-23T23:01:01.322Z,99.90
2018-09-23T23:03:33.952Z,99.90
2018-09-23T23:06:06.606Z,99.90
2018-09-23T23:08:39.208Z,99.90
2018-09-23T23:11:11.881Z,99.90
2018-09-23T23:13:44.475Z,99.90
2018-09-23T23:16:17.033Z,99.90
2018-09-23T23:18:49.616Z,99.90
2018-09-23T23:21:22.351Z,99.90
2018-09-23T23:23:54.952Z,99.90
2018-09-23T23:26:27.537Z,99.90
2018-09-23T23:29:00.229Z,99.90
2018-09-23T23:31:32.868Z,99.90
2018-09-23T23:34:05.541Z,99.90
2018-09-23T23:36:38.134Z,99.90
2018-09-23T23:39:11.011Z,99.90
2018-09-23T23:41:43.627Z,99.90
2018-09-23T23:44:16.239Z,99.90
2018-09-23T23:46:48.880Z,99.90
2018-09-23T23:49:21.505Z,99.90
2018-09-23T23:51:54.173Z,99.90
2018-09-23T23:54:26.842Z,99.90
2018-09-23T23:56:59.481Z,99.90
2018-09-23T23:59:32.138Z,99.90
